GEMLLESU

Guest
Details From GEML - Melilla
To LESU - Seo De Urgel
Flight Number -
Tags Generated
Created
Modified
Stats Distance 470 nm / 871 km
Max Altitude 0 ft / 0 m
Waypoints 4
Social Downloads 3
Likes 0
Share VATSIM

Download

Looking for another format? Having issues loading an existing format? Contact us
Advertisement - Login to hide

Notes

Generated

Route

GEML NARGO SINDO LESU

ID Type Via Altitude Latitude Longitude Leg Dist Tot Dist Heading (true) Name
O GEML APT - 0 ft / 0 m 35.28586˚ -2.96118˚ - 0 nm - -
NARGO FIX - 0 ft / 0 m 38.73831˚ -0.99867˚ 227 nm 227 nm 24° / 25° -
SINDO FIX - 0 ft / 0 m 42.13616˚ 1.32370˚ 230 nm 457 nm 27° / 28° -
O LESU APT - 0 ft / 0 m 42.33710˚ 1.40709˚ 12 nm 470 nm 17° / 17° Seo de Urgel

Altitude Profile

Advertisement - Login to hide

Weather


0- 5 10 15 20 25 30 35+ Temperature / ° C

Clouds and Precipitation
Forecast for 2017-12-14 18:00 UTC. Updated 21 minutes ago

Ground ~20,000 ft ~40,000 ft Winds

GEML

Details ICAO GEML (MLN)
Name MELILLA
Region Ceuta and Melilla
Timezone Africa/Casablanca (UTC+0.0)
Stats Elevation 156 ft / 48 m (AMSL)
Location 35.280374° -2.956708°
Runways 1
Magnetic Variation 0.454° W

METAR

GEML 141330Z 26011G21KT 170V310 CAVOK 18/03 Q1022

Decode

TAF

TAF GEML 140800Z 1409/1509 26008KT CAVOK TX19/1414Z TN11/1507Z PROB40 TEMPO 1420/1506 27015G25KT

Decode

Departure Runways

ID Width Length Bearing (true) Bearing (mag) Surface Threshold Offset Overrun Length
15 148 ft / 45 m 4,811 ft / 1,466 m 146.39° 146.84° Asphalt 755 ft / 230 m 0 ft / 0 m
33 148 ft / 45 m 4,811 ft / 1,466 m 326.40° 326.85° Asphalt 0 ft / 0 m 0 ft / 0 m

LESU

Details ICAO LESU (LEU)
Name Seo de Urgel
Region Spain
Timezone Europe/Madrid (UTC+1.0)
Stats Elevation 2,625 ft / 800 m (AMSL)
Location 42.341155° 1.410651°
Runways 1
Magnetic Variation 0.625° E

METAR

LESU 141330Z VRB02KT CAVOK 07/M04 Q1013

Decode

TAF

TAF LESU 140800Z 1409/1509 VRB03KT 9999 SCT020 TX12/1413Z TNM02/1507Z TEMPO 1413/1418 20007KT PROB40 TEMPO 1419/1509 2000 BR BKN008 PROB30 TEMPO 1500/1509 RA

Decode

Destination Runways

ID Width Length Bearing (true) Bearing (mag) Surface Threshold Offset Overrun Length
03 98 ft / 30 m 4,396 ft / 1,340 m 30.50° 29.87° Asphalt 0 ft / 0 m 98 ft / 30 m
21 98 ft / 30 m 4,396 ft / 1,340 m 210.50° 209.87° Asphalt 0 ft / 0 m 102 ft / 31 m